createdAt,value
2022-07-29T00:01:44.069Z,18.03
2022-07-29T00:04:13.014Z,18.02
2022-07-29T00:06:42.419Z,18.00
2022-07-29T00:09:10.643Z,17.97
2022-07-29T00:11:38.776Z,17.96
2022-07-29T00:14:06.854Z,17.94
2022-07-29T00:16:35.465Z,17.91
2022-07-29T00:19:04.515Z,17.87
2022-07-29T00:21:32.699Z,17.84
2022-07-29T00:24:00.794Z,17.80
2022-07-29T00:26:32.881Z,17.75
2022-07-29T00:29:32.642Z,17.71
2022-07-29T00:31:50.701Z,17.68
2022-07-29T00:34:37.585Z,17.65
2022-07-29T00:37:05.720Z,17.63
2022-07-29T00:39:36.311Z,17.60
2022-07-29T00:42:05.959Z,17.59
2022-07-29T00:44:38.887Z,17.59
2022-07-29T00:47:08.212Z,17.59
2022-07-29T00:49:36.772Z,17.60
2022-07-29T00:52:06.276Z,17.61
2022-07-29T00:54:35.393Z,17.62
2022-07-29T00:57:09.125Z,17.62
2022-07-29T00:59:37.312Z,17.61
2022-07-29T01:02:05.688Z,17.59
2022-07-29T01:04:34.313Z,17.56
2022-07-29T01:07:03.787Z,17.54
2022-07-29T01:09:45.745Z,17.51
2022-07-29T01:12:19.820Z,17.46
2022-07-29T01:14:49.966Z,17.43
2022-07-29T01:17:38.002Z,17.39
2022-07-29T01:20:14.894Z,17.37
2022-07-29T01:23:03.178Z,17.32
2022-07-29T01:25:53.190Z,17.27
2022-07-29T01:28:36.595Z,17.21
2022-07-29T01:31:07.477Z,17.17
2022-07-29T01:33:50.585Z,17.11
2022-07-29T01:36:31.041Z,17.04
2022-07-29T01:39:36.263Z,16.97
2022-07-29T01:42:13.989Z,16.89
2022-07-29T01:45:07.437Z,16.83
2022-07-29T01:47:57.817Z,16.79
2022-07-29T01:50:45.606Z,16.77
2022-07-29T01:53:22.661Z,16.75
2022-07-29T01:55:52.084Z,16.73
2022-07-29T01:58:21.812Z,16.69
2022-07-29T02:00:51.598Z,16.67
2022-07-29T02:03:20.110Z,16.63
2022-07-29T02:05:51.410Z,16.63
2022-07-29T02:08:20.838Z,16.60
2022-07-29T02:10:49.950Z,16.57
2022-07-29T02:13:18.630Z,16.54
2022-07-29T02:15:47.907Z,16.50
2022-07-29T02:18:18.933Z,16.47
2022-07-29T02:20:49.685Z,16.45
2022-07-29T02:23:21.746Z,16.42
2022-07-29T02:25:52.867Z,16.40
2022-07-29T02:28:23.907Z,16.38
2022-07-29T02:30:53.757Z,16.36
2022-07-29T02:33:25.124Z,16.33
2022-07-29T02:35:54.617Z,16.31
2022-07-29T02:38:43.498Z,16.26
2022-07-29T02:41:16.733Z,16.21
2022-07-29T02:43:48.009Z,16.18
2022-07-29T02:46:28.966Z,16.15
2022-07-29T02:49:05.377Z,16.11
2022-07-29T02:51:45.177Z,16.08
2022-07-29T02:54:30.750Z,16.05
2022-07-29T02:57:05.088Z,16.03
2022-07-29T02:59:37.855Z,16.00
2022-07-29T03:02:07.124Z,15.96
2022-07-29T03:04:36.522Z,15.93
2022-07-29T03:07:06.295Z,15.90
2022-07-29T03:09:35.160Z,15.89
2022-07-29T03:12:05.073Z,15.88
2022-07-29T03:14:34.533Z,15.88
2022-07-29T03:17:03.173Z,15.89
2022-07-29T03:19:32.380Z,15.89
2022-07-29T03:22:00.942Z,15.90
2022-07-29T03:24:35.262Z,15.93
2022-07-29T03:27:04.825Z,15.97
2022-07-29T03:29:34.565Z,16.01
2022-07-29T03:32:08.043Z,16.06
2022-07-29T03:34:38.584Z,16.12
2022-07-29T03:37:07.810Z,16.17
2022-07-29T03:39:38.565Z,16.22
2022-07-29T03:42:09.995Z,16.28
2022-07-29T03:44:40.124Z,16.34
2022-07-29T03:47:10.745Z,16.40
2022-07-29T03:49:41.381Z,16.47
2022-07-29T03:52:10.073Z,16.53
2022-07-29T03:54:38.369Z,16.61
2022-07-29T03:57:08.425Z,16.68
2022-07-29T03:59:38.981Z,16.75
2022-07-29T04:02:12.057Z,16.81
2022-07-29T04:04:40.691Z,16.88
2022-07-29T04:07:13.243Z,16.93
2022-07-29T04:09:41.632Z,16.99
2022-07-29T04:12:10.316Z,17.06
2022-07-29T04:14:38.432Z,17.11
2022-07-29T04:17:06.789Z,17.17
2022-07-29T04:19:35.094Z,17.22
2022-07-29T04:22:04.133Z,17.28
2022-07-29T04:24:32.033Z,17.34
2022-07-29T04:27:00.084Z,17.39
2022-07-29T04:29:28.194Z,17.45
2022-07-29T04:31:56.250Z,17.51
2022-07-29T04:34:28.295Z,17.57
2022-07-29T04:36:57.001Z,17.63
2022-07-29T04:39:25.766Z,17.69
2022-07-29T04:41:57.806Z,17.74
2022-07-29T04:44:28.903Z,17.81
2022-07-29T04:46:58.414Z,17.86
2022-07-29T04:49:27.133Z,17.92
2022-07-29T04:51:55.407Z,17.98
2022-07-29T04:54:23.714Z,18.07
2022-07-29T04:56:52.865Z,18.13
2022-07-29T04:59:20.955Z,18.21
2022-07-29T05:01:49.016Z,18.27
2022-07-29T05:04:17.672Z,18.34
2022-07-29T05:06:45.866Z,18.40
2022-07-29T05:09:14.091Z,18.44
2022-07-29T05:11:42.095Z,18.48
2022-07-29T05:14:10.150Z,18.54
2022-07-29T05:16:38.120Z,18.60
2022-07-29T05:19:09.730Z,18.66
2022-07-29T05:21:41.979Z,18.74
2022-07-29T05:24:10.042Z,18.82
2022-07-29T05:26:38.114Z,18.89
2022-07-29T05:29:06.446Z,18.96
2022-07-29T05:31:34.748Z,19.04
2022-07-29T05:34:02.857Z,19.13
2022-07-29T05:36:30.979Z,19.21
2022-07-29T05:38:59.121Z,19.30
2022-07-29T05:41:27.366Z,19.38
2022-07-29T05:43:55.602Z,19.47
2022-07-29T05:46:23.744Z,19.56
2022-07-29T05:48:52.134Z,19.66
2022-07-29T05:51:20.172Z,19.76
2022-07-29T05:53:48.295Z,19.85
2022-07-29T05:56:16.981Z,19.95
2022-07-29T05:58:45.009Z,20.05
2022-07-29T06:01:13.305Z,20.14
2022-07-29T06:03:42.564Z,20.24
2022-07-29T06:06:11.162Z,20.35
2022-07-29T06:08:39.827Z,20.46
2022-07-29T06:11:09.569Z,20.58
2022-07-29T06:13:37.997Z,20.66
2022-07-29T06:16:06.234Z,20.73
2022-07-29T06:18:34.615Z,20.82
2022-07-29T06:21:02.825Z,20.91
2022-07-29T06:23:30.777Z,21.01
2022-07-29T06:25:59.595Z,21.11
2022-07-29T06:28:28.358Z,21.23
2022-07-29T06:30:56.648Z,21.38
2022-07-29T06:33:24.931Z,21.56
2022-07-29T06:35:53.579Z,21.73
2022-07-29T06:38:31.107Z,21.90
2022-07-29T06:41:03.803Z,22.11
2022-07-29T06:43:52.477Z,22.37
2022-07-29T06:46:24.121Z,22.71
2022-07-29T06:48:53.570Z,23.06
2022-07-29T06:51:23.840Z,23.40
2022-07-29T06:54:00.607Z,23.77
2022-07-29T06:56:43.004Z,24.18
2022-07-29T06:59:12.643Z,24.52
2022-07-29T07:01:44.443Z,24.79
2022-07-29T07:04:13.461Z,25.03
2022-07-29T07:06:41.891Z,25.26
2022-07-29T07:09:10.026Z,25.50
2022-07-29T07:11:38.254Z,25.73
2022-07-29T07:14:06.350Z,25.98
2022-07-29T07:16:34.508Z,26.28
2022-07-29T07:19:02.721Z,26.59
2022-07-29T07:21:31.438Z,26.82
2022-07-29T07:24:00.499Z,26.98
2022-07-29T07:26:29.634Z,27.13
2022-07-29T07:28:58.281Z,27.30
2022-07-29T07:31:26.202Z,27.54
2022-07-29T07:33:54.724Z,27.75
2022-07-29T07:36:23.318Z,27.94
2022-07-29T07:38:51.461Z,28.11
2022-07-29T07:41:19.521Z,28.22
2022-07-29T07:43:48.251Z,28.35
2022-07-29T07:46:16.661Z,28.57
2022-07-29T07:48:45.599Z,28.85
2022-07-29T07:51:14.030Z,29.14
2022-07-29T07:53:42.435Z,29.38
2022-07-29T07:56:12.867Z,29.57
2022-07-29T07:58:41.782Z,29.77
2022-07-29T08:01:10.269Z,29.91
2022-07-29T08:03:39.075Z,29.99
2022-07-29T08:06:07.659Z,30.00
2022-07-29T08:08:36.449Z,30.06
2022-07-29T08:11:09.198Z,30.16
2022-07-29T08:13:39.392Z,30.31
2022-07-29T08:16:13.245Z,30.35
2022-07-29T08:18:42.865Z,30.41
2022-07-29T08:21:11.111Z,30.48
2022-07-29T08:23:59.699Z,30.54
2022-07-29T08:26:30.030Z,30.64
2022-07-29T08:28:58.032Z,30.82
2022-07-29T08:31:26.155Z,31.03
2022-07-29T08:33:54.172Z,31.19
2022-07-29T08:36:22.333Z,31.31
2022-07-29T08:38:50.758Z,31.44
2022-07-29T08:41:22.827Z,31.56
2022-07-29T08:43:53.031Z,31.75
2022-07-29T08:46:22.098Z,31.93
2022-07-29T08:48:50.653Z,32.14
2022-07-29T08:51:20.944Z,32.32
2022-07-29T08:53:50.773Z,32.53
2022-07-29T08:56:20.544Z,32.74
2022-07-29T08:58:51.965Z,32.87
2022-07-29T09:01:35.533Z,32.93
2022-07-29T09:04:07.150Z,33.11
2022-07-29T09:06:40.481Z,33.29
2022-07-29T09:09:10.140Z,33.44
2022-07-29T09:11:38.378Z,33.56
2022-07-29T09:14:06.914Z,33.70
2022-07-29T09:16:53.563Z,33.78
2022-07-29T09:19:23.700Z,33.87
2022-07-29T09:22:03.103Z,33.94
2022-07-29T09:24:42.516Z,34.01
2022-07-29T09:27:24.314Z,33.84
2022-07-29T09:30:01.496Z,33.78
2022-07-29T09:32:30.703Z,33.79
2022-07-29T09:35:19.449Z,33.77
2022-07-29T09:37:48.706Z,33.74
2022-07-29T09:40:24.205Z,33.71
2022-07-29T09:42:54.266Z,33.69
2022-07-29T09:45:34.782Z,33.72
2022-07-29T09:48:18.365Z,33.76
2022-07-29T09:50:49.501Z,33.75
2022-07-29T09:53:38.503Z,33.74
2022-07-29T09:56:07.310Z,33.73
2022-07-29T09:58:35.900Z,33.67
2022-07-29T10:01:05.070Z,33.58
2022-07-29T10:03:33.488Z,33.56
2022-07-29T10:06:05.866Z,33.68
2022-07-29T10:08:34.020Z,33.77
2022-07-29T10:11:14.995Z,33.83
2022-07-29T10:13:45.333Z,33.88
2022-07-29T10:16:15.011Z,33.87
2022-07-29T10:18:44.834Z,33.85
2022-07-29T10:21:22.560Z,33.79
2022-07-29T10:24:02.478Z,33.80
2022-07-29T10:26:31.510Z,33.85
2022-07-29T10:28:59.805Z,33.94
2022-07-29T10:31:36.489Z,33.97
2022-07-29T10:34:57.488Z,33.89
2022-07-29T10:37:45.960Z,33.91
2022-07-29T10:40:57.290Z,33.89
2022-07-29T10:43:29.943Z,33.82
2022-07-29T10:46:01.660Z,33.68
2022-07-29T10:48:30.349Z,33.45
2022-07-29T10:51:04.620Z,33.14
2022-07-29T10:53:54.209Z,32.76
2022-07-29T10:56:35.913Z,32.34
2022-07-29T10:59:22.755Z,31.96
2022-07-29T11:01:54.275Z,31.65
2022-07-29T11:04:45.408Z,31.48
2022-07-29T11:07:17.497Z,31.38
2022-07-29T11:10:15.138Z,31.30
2022-07-29T11:12:44.506Z,31.29
2022-07-29T11:15:18.438Z,31.31
2022-07-29T11:17:55.244Z,31.27
2022-07-29T11:20:34.749Z,31.14
2022-07-29T11:23:33.365Z,31.00
2022-07-29T11:26:18.977Z,30.89
2022-07-29T11:28:55.659Z,30.79
2022-07-29T11:31:42.458Z,30.70
2022-07-29T11:34:28.006Z,30.54
2022-07-29T11:40:08.183Z,30.13
2022-07-29T11:42:36.857Z,30.01
2022-07-29T11:45:44.412Z,29.96
2022-07-29T11:48:27.911Z,29.95
2022-07-29T11:50:55.101Z,29.86
2022-07-29T11:53:24.196Z,29.79
2022-07-29T11:55:58.248Z,29.73
2022-07-29T11:58:28.480Z,29.71
2022-07-29T12:00:57.845Z,29.70
2022-07-29T12:03:35.249Z,29.69
2022-07-29T12:06:15.134Z,29.69
2022-07-29T12:07:01.663Z,30.32
2022-07-29T12:08:44.888Z,29.67
2022-07-29T12:11:20.388Z,29.63
2022-07-29T12:13:50.434Z,29.61
2022-07-29T12:16:29.209Z,29.59
2022-07-29T12:19:02.893Z,29.52
2022-07-29T12:21:53.959Z,29.44
2022-07-29T12:24:26.843Z,29.36
2022-07-29T12:26:58.161Z,29.30
2022-07-29T12:29:33.933Z,29.16
2022-07-29T12:32:14.568Z,28.96
2022-07-29T12:34:48.260Z,28.83
2022-07-29T12:37:16.705Z,28.69
2022-07-29T12:39:45.065Z,28.57
2022-07-29T12:42:18.490Z,28.32
2022-07-29T12:44:49.358Z,28.00
2022-07-29T12:47:19.334Z,27.80
2022-07-29T12:49:49.100Z,27.65
2022-07-29T12:52:32.860Z,27.48
2022-07-29T12:55:03.027Z,27.27
2022-07-29T12:57:33.071Z,27.11
2022-07-29T13:00:05.711Z,26.95
2022-07-29T13:02:34.129Z,26.89
2022-07-29T13:05:02.654Z,26.84
2022-07-29T13:07:54.244Z,26.70
2022-07-29T13:10:24.135Z,26.62
2022-07-29T13:13:06.420Z,26.57
2022-07-29T13:15:35.190Z,26.52
2022-07-29T13:18:04.912Z,26.51
2022-07-29T13:20:33.534Z,26.39
2022-07-29T13:23:01.977Z,26.34
2022-07-29T13:25:33.032Z,26.23
2022-07-29T13:28:01.650Z,26.15
2022-07-29T13:30:30.178Z,26.13
2022-07-29T13:32:58.350Z,26.10
2022-07-29T13:35:33.452Z,26.08
2022-07-29T13:38:08.425Z,26.01
2022-07-29T13:40:36.454Z,25.97
2022-07-29T13:43:04.462Z,25.92
2022-07-29T13:45:32.418Z,25.86
2022-07-29T13:48:00.430Z,25.80
2022-07-29T13:50:34.542Z,25.78
2022-07-29T13:53:02.640Z,25.77
2022-07-29T13:55:31.028Z,25.74
2022-07-29T13:57:59.091Z,25.72
2022-07-29T14:00:27.321Z,25.69
2022-07-29T14:02:55.514Z,25.67
2022-07-29T14:05:23.662Z,25.62
2022-07-29T14:07:51.925Z,25.58
2022-07-29T14:10:20.350Z,25.51
2022-07-29T14:12:48.466Z,25.47
2022-07-29T14:15:16.539Z,25.43
2022-07-29T14:17:44.617Z,25.34
2022-07-29T14:20:12.775Z,25.20
2022-07-29T14:22:42.698Z,25.00
2022-07-29T14:25:15.147Z,24.83
2022-07-29T14:27:44.837Z,24.60
2022-07-29T14:30:13.416Z,24.40
2022-07-29T14:32:41.758Z,24.22
2022-07-29T14:35:09.933Z,24.02
2022-07-29T14:37:40.411Z,23.88
2022-07-29T14:40:10.818Z,23.76
2022-07-29T14:42:40.095Z,23.66
2022-07-29T14:45:10.321Z,23.54
2022-07-29T14:47:39.790Z,23.42
2022-07-29T14:50:08.994Z,23.32
2022-07-29T14:52:37.296Z,23.27
2022-07-29T14:55:06.125Z,23.23
2022-07-29T14:57:50.943Z,23.19
2022-07-29T15:00:19.402Z,23.16
2022-07-29T15:03:02.786Z,23.14
2022-07-29T15:05:32.356Z,23.12
2022-07-29T15:08:00.817Z,23.09
2022-07-29T15:10:29.805Z,23.03
2022-07-29T15:12:58.445Z,23.00
2022-07-29T15:15:27.079Z,22.98
2022-07-29T15:17:55.188Z,22.95
2022-07-29T15:20:26.311Z,22.93
2022-07-29T15:22:56.571Z,22.88
2022-07-29T15:25:28.354Z,22.79
2022-07-29T15:28:01.253Z,22.73
2022-07-29T15:30:33.410Z,22.67
2022-07-29T15:33:04.208Z,22.60
2022-07-29T15:35:32.771Z,22.63
2022-07-29T15:38:01.065Z,22.63
2022-07-29T15:40:29.644Z,22.64
2022-07-29T15:42:58.609Z,22.64
2022-07-29T15:45:26.812Z,22.63
2022-07-29T15:48:00.673Z,22.66
2022-07-29T15:50:28.757Z,22.70
2022-07-29T15:52:57.054Z,22.77
2022-07-29T15:55:25.518Z,22.84
2022-07-29T15:57:57.200Z,22.91
2022-07-29T16:00:28.558Z,22.94
2022-07-29T16:02:57.234Z,23.01
2022-07-29T16:05:25.592Z,23.07
2022-07-29T16:07:53.644Z,23.09
2022-07-29T16:10:21.649Z,23.11
2022-07-29T16:12:49.807Z,23.15
2022-07-29T16:15:17.881Z,23.18
2022-07-29T16:17:45.969Z,23.19
2022-07-29T16:20:14.152Z,23.21
2022-07-29T16:22:42.655Z,23.19
2022-07-29T16:25:10.698Z,23.20
2022-07-29T16:27:38.956Z,23.21
2022-07-29T16:30:09.782Z,23.22
2022-07-29T16:32:38.393Z,23.23
2022-07-29T16:35:07.877Z,23.24
2022-07-29T16:37:37.255Z,23.25
2022-07-29T16:40:07.244Z,23.26
2022-07-29T16:42:47.901Z,23.28
2022-07-29T16:45:17.986Z,23.31
2022-07-29T16:47:48.620Z,23.32
2022-07-29T16:50:18.129Z,23.31
2022-07-29T16:52:46.199Z,23.26
2022-07-29T16:55:14.374Z,23.24
2022-07-29T16:57:43.837Z,23.24
2022-07-29T17:00:13.612Z,23.24
2022-07-29T17:02:41.761Z,23.24
2022-07-29T17:05:10.880Z,23.21
2022-07-29T17:07:40.356Z,23.19
2022-07-29T17:10:10.023Z,23.13
2022-07-29T17:12:40.069Z,23.08
2022-07-29T17:15:10.820Z,23.03
2022-07-29T17:17:55.081Z,23.00
2022-07-29T17:20:27.047Z,22.96
2022-07-29T17:22:55.536Z,22.93
2022-07-29T17:25:24.421Z,22.89
2022-07-29T17:27:56.390Z,22.85
2022-07-29T17:30:27.561Z,22.80
2022-07-29T17:32:55.958Z,22.73
2022-07-29T17:35:56.136Z,22.67
2022-07-29T17:38:24.257Z,22.58
2022-07-29T17:40:52.430Z,22.51
2022-07-29T17:43:20.482Z,22.43
2022-07-29T17:45:48.857Z,22.37
2022-07-29T17:48:19.766Z,22.30
2022-07-29T17:50:48.825Z,22.22
2022-07-29T17:53:17.272Z,22.14
2022-07-29T17:55:46.576Z,22.08
2022-07-29T17:58:15.366Z,22.01
2022-07-29T18:00:43.991Z,21.92
2022-07-29T18:03:12.455Z,21.82
2022-07-29T18:05:41.627Z,21.73
2022-07-29T18:08:09.981Z,21.64
2022-07-29T18:10:38.276Z,21.56
2022-07-29T18:13:06.352Z,21.46
2022-07-29T18:15:34.467Z,21.38
2022-07-29T18:18:02.442Z,21.29
2022-07-29T18:20:31.264Z,21.20
2022-07-29T18:22:59.536Z,21.12
2022-07-29T18:25:29.016Z,21.02
2022-07-29T18:28:00.479Z,20.93
2022-07-29T18:30:30.916Z,20.85
2022-07-29T18:33:20.146Z,20.78
2022-07-29T18:35:49.509Z,20.71
2022-07-29T18:38:17.790Z,20.65
2022-07-29T18:40:46.350Z,20.56
2022-07-29T18:43:14.474Z,20.47
2022-07-29T18:45:42.723Z,20.40
2022-07-29T18:48:15.386Z,20.32
2022-07-29T18:50:43.786Z,20.24
2022-07-29T18:53:11.900Z,20.18
2022-07-29T18:55:40.188Z,20.13
2022-07-29T18:58:08.367Z,20.08
2022-07-29T19:00:36.521Z,20.04
2022-07-29T19:03:04.956Z,20.01
2022-07-29T19:05:33.584Z,19.99
2022-07-29T19:08:01.689Z,19.96
2022-07-29T19:10:30.754Z,19.92
2022-07-29T19:12:58.883Z,19.88
2022-07-29T19:15:27.105Z,19.83
2022-07-29T19:18:00.554Z,19.79
2022-07-29T19:20:29.546Z,19.74
2022-07-29T19:22:57.648Z,19.69
2022-07-29T19:25:25.954Z,19.63
2022-07-29T19:27:54.326Z,19.57
2022-07-29T19:30:22.445Z,19.51
2022-07-29T19:32:50.629Z,19.46
2022-07-29T19:35:25.516Z,19.40
2022-07-29T19:37:55.580Z,19.35
2022-07-29T19:40:23.900Z,19.30
2022-07-29T19:42:53.153Z,19.25
2022-07-29T19:45:22.859Z,19.20
2022-07-29T19:47:51.432Z,19.13
2022-07-29T19:50:19.626Z,19.09
2022-07-29T19:52:47.756Z,19.07
2022-07-29T19:55:16.166Z,19.07
2022-07-29T19:57:47.016Z,19.06
2022-07-29T20:00:17.112Z,19.06
2022-07-29T20:02:49.501Z,19.06
2022-07-29T20:05:18.144Z,19.05
2022-07-29T20:07:47.858Z,19.04
2022-07-29T20:10:16.846Z,19.01
2022-07-29T20:12:44.825Z,19.00
2022-07-29T20:15:16.501Z,18.98
2022-07-29T20:17:46.434Z,18.96
2022-07-29T20:20:14.493Z,18.94
2022-07-29T20:22:43.083Z,18.92
2022-07-29T20:25:12.005Z,18.90
2022-07-29T20:27:40.925Z,18.87
2022-07-29T20:30:09.148Z,18.84
2022-07-29T20:32:40.703Z,18.80
2022-07-29T20:35:12.038Z,18.77
2022-07-29T20:37:55.863Z,18.74
2022-07-29T20:40:29.100Z,18.69
2022-07-29T20:42:57.309Z,18.64
2022-07-29T20:45:25.713Z,18.61
2022-07-29T20:47:54.173Z,18.60
2022-07-29T20:50:23.826Z,18.59
2022-07-29T20:52:52.890Z,18.57
2022-07-29T20:55:21.569Z,18.53
2022-07-29T20:57:49.603Z,18.51
2022-07-29T21:00:17.676Z,18.50
2022-07-29T21:02:48.788Z,18.49
2022-07-29T21:05:17.133Z,18.48
2022-07-29T21:07:45.306Z,18.45
2022-07-29T21:10:14.428Z,18.41
2022-07-29T21:12:42.697Z,18.36
2022-07-29T21:15:13.594Z,18.33
2022-07-29T21:17:48.753Z,18.29
2022-07-29T21:20:18.496Z,18.25
2022-07-29T21:22:46.640Z,18.24
2022-07-29T21:25:14.789Z,18.23
2022-07-29T21:28:01.321Z,18.22
2022-07-29T21:30:29.303Z,18.20
2022-07-29T21:32:57.460Z,18.19
2022-07-29T21:36:01.569Z,18.19
2022-07-29T21:38:16.462Z,18.18
2022-07-29T21:40:46.578Z,18.17
2022-07-29T21:43:15.658Z,18.15
2022-07-29T21:45:44.382Z,18.15
2022-07-29T21:48:14.231Z,18.14
2022-07-29T21:50:42.345Z,18.13
2022-07-29T21:53:11.111Z,18.11
2022-07-29T21:55:42.245Z,18.10
2022-07-29T21:58:11.857Z,18.10
2022-07-29T22:00:41.438Z,18.09
2022-07-29T22:03:10.032Z,18.09
2022-07-29T22:05:38.079Z,18.09
2022-07-29T22:08:07.380Z,18.09
2022-07-29T22:10:35.805Z,18.09
2022-07-29T22:13:04.142Z,18.09
2022-07-29T22:15:32.577Z,18.10
2022-07-29T22:18:00.601Z,18.10
2022-07-29T22:20:28.704Z,18.09
2022-07-29T22:22:56.729Z,18.09
2022-07-29T22:25:24.955Z,18.08
2022-07-29T22:27:52.869Z,18.08
2022-07-29T22:30:20.855Z,18.09
2022-07-29T22:32:49.766Z,18.11
2022-07-29T22:35:18.789Z,18.12
2022-07-29T22:37:46.838Z,18.14
2022-07-29T22:40:15.138Z,18.16
2022-07-29T22:42:43.415Z,18.18
2022-07-29T22:45:11.698Z,18.18
2022-07-29T22:47:47.931Z,18.20
2022-07-29T22:50:17.667Z,18.21
2022-07-29T22:52:47.024Z,18.22
2022-07-29T22:55:17.338Z,18.23
2022-07-29T22:57:45.454Z,18.24
2022-07-29T23:00:14.307Z,18.25
2022-07-29T23:02:42.308Z,18.28
2022-07-29T23:05:10.815Z,18.28
2022-07-29T23:07:38.882Z,18.28
2022-07-29T23:10:07.877Z,18.29
2022-07-29T23:12:35.987Z,18.31
2022-07-29T23:15:05.851Z,18.31
2022-07-29T23:17:36.324Z,18.31
2022-07-29T23:20:07.943Z,18.30
2022-07-29T23:22:36.324Z,18.30
2022-07-29T23:25:06.355Z,18.31
2022-07-29T23:27:34.443Z,18.32
2022-07-29T23:30:03.711Z,18.32
2022-07-29T23:32:32.021Z,18.34
2022-07-29T23:35:00.583Z,18.33
2022-07-29T23:37:28.582Z,18.32
2022-07-29T23:39:56.934Z,18.33
2022-07-29T23:42:24.941Z,18.33
2022-07-29T23:44:53.071Z,18.33
2022-07-29T23:47:21.246Z,18.33
2022-07-29T23:49:50.301Z,18.34
2022-07-29T23:52:19.676Z,18.33
2022-07-29T23:54:47.846Z,18.32
2022-07-29T23:57:16.213Z,18.31
2022-07-29T23:59:44.238Z,18.30
